sensor_id;sensor_type;location;lat;lon;timestamp;pressure;altitude;pressure_sealevel;temperature;humidity
20079;BME280;10199;48.850;8.924;2023-09-12T00:00:49;96867.38;;;25.98;52.04
20079;BME280;10199;48.850;8.924;2023-09-12T00:03:20;96835.63;;;25.85;51.76
20079;BME280;10199;48.850;8.924;2023-09-12T00:05:53;96858.13;;;25.99;51.73
20079;BME280;10199;48.850;8.924;2023-09-12T00:08:21;96858.94;;;26.00;51.61
20079;BME280;10199;48.850;8.924;2023-09-12T00:10:59;96839.88;;;25.91;51.83
20079;BME280;10199;48.850;8.924;2023-09-12T00:13:27;96856.53;;;25.98;51.99
20079;BME280;10199;48.850;8.924;2023-09-12T00:15:55;96858.13;;;25.99;51.62
20079;BME280;10199;48.850;8.924;2023-09-12T00:18:23;96855.44;;;25.99;51.37
20079;BME280;10199;48.850;8.924;2023-09-12T00:20:52;96856.31;;;25.95;51.72
20079;BME280;10199;48.850;8.924;2023-09-12T00:23:21;96853.91;;;25.93;51.88
20079;BME280;10199;48.850;8.924;2023-09-12T00:25:50;96851.72;;;25.95;51.73
20079;BME280;10199;48.850;8.924;2023-09-12T00:28:19;96846.28;;;25.95;51.81
20079;BME280;10199;48.850;8.924;2023-09-12T00:30:47;96849.00;;;25.95;51.89
20079;BME280;10199;48.850;8.924;2023-09-12T00:33:15;96852.00;;;25.94;51.91
20079;BME280;10199;48.850;8.924;2023-09-12T00:35:43;96834.53;;;25.86;51.68
20079;BME280;10199;48.850;8.924;2023-09-12T00:38:12;96848.19;;;25.95;51.84
20079;BME280;10199;48.850;8.924;2023-09-12T00:40:40;96844.78;;;25.89;51.47
20079;BME280;10199;48.850;8.924;2023-09-12T00:43:09;96846.50;;;25.99;51.71
20079;BME280;10199;48.850;8.924;2023-09-12T00:45:37;96828.63;;;25.84;51.36
20079;BME280;10199;48.850;8.924;2023-09-12T00:48:06;96846.28;;;25.95;51.71
20079;BME280;10199;48.850;8.924;2023-09-12T00:50:36;96842.41;;;26.01;51.91
20079;BME280;10199;48.850;8.924;2023-09-12T00:53:04;96840.25;;;25.98;51.69
20079;BME280;10199;48.850;8.924;2023-09-12T00:55:37;96821.78;;;25.73;51.83
20079;BME280;10199;48.850;8.924;2023-09-12T00:58:07;96843.69;;;25.90;52.17
20079;BME280;10199;48.850;8.924;2023-09-12T01:00:36;96837.53;;;25.85;51.74
20079;BME280;10199;48.850;8.924;2023-09-12T01:03:04;96833.03;;;25.80;51.70
20079;BME280;10199;48.850;8.924;2023-09-12T01:05:32;96811.34;;;25.66;51.89
20079;BME280;10199;48.850;8.924;2023-09-12T01:08:01;96822.59;;;25.87;51.76
20079;BME280;10199;48.850;8.924;2023-09-12T01:10:29;96834.25;;;25.88;51.86
20079;BME280;10199;48.850;8.924;2023-09-12T01:12:59;96813.66;;;25.73;51.85
20079;BME280;10199;48.850;8.924;2023-09-12T01:15:27;96830.44;;;25.89;51.93
20079;BME280;10199;48.850;8.924;2023-09-12T01:17:56;96833.22;;;25.84;51.75
20079;BME280;10199;48.850;8.924;2023-09-12T01:20:27;96822.59;;;25.87;51.92
20079;BME280;10199;48.850;8.924;2023-09-12T01:23:02;96827.50;;;25.85;51.88
20079;BME280;10199;48.850;8.924;2023-09-12T01:25:56;96833.44;;;25.87;51.89
20079;BME280;10199;48.850;8.924;2023-09-12T01:28:30;96816.66;;;25.71;51.67
20079;BME280;10199;48.850;8.924;2023-09-12T01:31:03;96830.72;;;25.87;51.54
20079;BME280;10199;48.850;8.924;2023-09-12T01:33:32;96831.81;;;25.86;51.42
20079;BME280;10199;48.850;8.924;2023-09-12T01:36:00;96826.41;;;25.86;51.80
20079;BME280;10199;48.850;8.924;2023-09-12T01:38:28;96829.22;;;25.81;51.78
20079;BME280;10199;48.850;8.924;2023-09-12T01:40:56;96828.41;;;25.81;51.80
20079;BME280;10199;48.850;8.924;2023-09-12T01:43:26;96831.41;;;25.79;51.77
20079;BME280;10199;48.850;8.924;2023-09-12T01:45:58;96835.94;;;25.84;51.62
20079;BME280;10199;48.850;8.924;2023-09-12T01:48:32;96825.31;;;25.87;51.58
20079;BME280;10199;48.850;8.924;2023-09-12T01:51:01;96810.72;;;25.69;51.73
20079;BME280;10199;48.850;8.924;2023-09-12T01:53:31;96823.78;;;25.81;51.59
20079;BME280;10199;48.850;8.924;2023-09-12T01:56:00;96827.09;;;25.78;51.95
20079;BME280;10199;48.850;8.924;2023-09-12T01:58:28;96820.56;;;25.79;51.55
20079;BME280;10199;48.850;8.924;2023-09-12T02:00:58;96821.38;;;25.80;51.77
20079;BME280;10199;48.850;8.924;2023-09-12T02:03:26;96821.47;;;25.75;51.59
20079;BME280;10199;48.850;8.924;2023-09-12T02:05:54;96827.31;;;25.82;51.60
20079;BME280;10199;48.850;8.924;2023-09-12T02:08:22;96822.97;;;25.67;51.63
20079;BME280;10199;48.850;8.924;2023-09-12T02:10:50;96819.41;;;25.53;51.88
20079;BME280;10199;48.850;8.924;2023-09-12T02:13:18;96821.69;;;25.46;52.06
20079;BME280;10199;48.850;8.924;2023-09-12T02:15:46;96822.50;;;25.46;52.31
20079;BME280;10199;48.850;8.924;2023-09-12T02:18:15;96812.47;;;25.47;51.81
20079;BME280;10199;48.850;8.924;2023-09-12T02:20:44;96812.47;;;25.47;52.02
20079;BME280;10199;48.850;8.924;2023-09-12T02:23:12;96822.50;;;25.46;52.14
20079;BME280;10199;48.850;8.924;2023-09-12T02:25:41;96813.56;;;25.46;52.16
20079;BME280;10199;48.850;8.924;2023-09-12T02:28:09;96827.91;;;25.46;51.90
20079;BME280;10199;48.850;8.924;2023-09-12T02:30:38;96805.03;;;25.38;52.25
20079;BME280;10199;48.850;8.924;2023-09-12T02:33:06;96790.47;;;25.34;52.23
20079;BME280;10199;48.850;8.924;2023-09-12T02:35:36;96796.00;;;25.43;52.00
20079;BME280;10199;48.850;8.924;2023-09-12T02:38:04;96808.75;;;25.43;52.35
20079;BME280;10199;48.850;8.924;2023-09-12T02:40:32;96805.44;;;25.46;52.11
20079;BME280;10199;48.850;8.924;2023-09-12T02:43:00;96808.97;;;25.46;52.31
20079;BME280;10199;48.850;8.924;2023-09-12T02:45:28;96809.16;;;25.50;52.10
20079;BME280;10199;48.850;8.924;2023-09-12T02:47:56;96807.47;;;25.54;52.44
20079;BME280;10199;48.850;8.924;2023-09-12T02:50:24;96803.34;;;25.56;52.37
20079;BME280;10199;48.850;8.924;2023-09-12T02:52:54;96804.47;;;25.55;52.03
20079;BME280;10199;48.850;8.924;2023-09-12T02:55:23;96800.44;;;25.53;52.23
20079;BME280;10199;48.850;8.924;2023-09-12T02:57:51;96800.66;;;25.56;52.14
20079;BME280;10199;48.850;8.924;2023-09-12T03:00:19;96801.97;;;25.59;52.20
20079;BME280;10199;48.850;8.924;2023-09-12T03:02:48;96794.94;;;25.58;52.01
20079;BME280;10199;48.850;8.924;2023-09-12T03:05:16;96798.94;;;25.60;52.26
20079;BME280;10199;48.850;8.924;2023-09-12T03:07:44;96800.84;;;25.60;52.02
20079;BME280;10199;48.850;8.924;2023-09-12T03:10:13;96801.66;;;25.60;51.89
20079;BME280;10199;48.850;8.924;2023-09-12T03:12:41;96800.16;;;25.54;52.09
20079;BME280;10199;48.850;8.924;2023-09-12T03:15:09;96800.66;;;25.56;52.18
20079;BME280;10199;48.850;8.924;2023-09-12T03:17:38;96803.25;;;25.61;52.12
20079;BME280;10199;48.850;8.924;2023-09-12T03:20:06;96793.41;;;25.52;51.88
20079;BME280;10199;48.850;8.924;2023-09-12T03:22:35;96777.16;;;25.52;51.87
20079;BME280;10199;48.850;8.924;2023-09-12T03:25:05;96792.03;;;25.54;52.07
20079;BME280;10199;48.850;8.924;2023-09-12T03:27:35;96783.50;;;25.61;51.99
20079;BME280;10199;48.850;8.924;2023-09-12T03:30:04;96796.34;;;25.55;52.09
20079;BME280;10199;48.850;8.924;2023-09-12T03:32:32;96796.72;;;25.49;52.20
20079;BME280;10199;48.850;8.924;2023-09-12T03:35:00;96790.81;;;25.47;51.80
20079;BME280;10199;48.850;8.924;2023-09-12T03:37:28;96791.91;;;25.46;51.96
20079;BME280;10199;48.850;8.924;2023-09-12T03:39:56;96793.00;;;25.45;52.11
20079;BME280;10199;48.850;8.924;2023-09-12T03:42:24;96790.00;;;25.46;52.01
20079;BME280;10199;48.850;8.924;2023-09-12T03:45:00;96783.38;;;25.38;52.06
20079;BME280;10199;48.850;8.924;2023-09-12T03:47:28;96780.16;;;25.36;51.82
20079;BME280;10199;48.850;8.924;2023-09-12T03:49:56;96785.56;;;25.36;51.73
20079;BME280;10199;48.850;8.924;2023-09-12T03:52:24;96785.56;;;25.36;51.98
20079;BME280;10199;48.850;8.924;2023-09-12T03:54:52;96791.19;;;25.40;52.13
20079;BME280;10199;48.850;8.924;2023-09-12T03:57:20;96785.19;;;25.43;51.97
20079;BME280;10199;48.850;8.924;2023-09-12T03:59:48;96785.47;;;25.42;51.76
20079;BME280;10199;48.850;8.924;2023-09-12T04:02:19;96769.78;;;25.25;51.71
20079;BME280;10199;48.850;8.924;2023-09-12T04:04:47;96783.13;;;25.21;51.55
20079;BME280;10199;48.850;8.924;2023-09-12T04:07:15;96783.56;;;25.09;51.73
20079;BME280;10199;48.850;8.924;2023-09-12T04:09:43;96782.41;;;25.16;51.98
20079;BME280;10199;48.850;8.924;2023-09-12T04:12:14;96777.13;;;25.24;52.26
20079;BME280;10199;48.850;8.924;2023-09-12T04:14:42;96780.53;;;25.30;52.14
20079;BME280;10199;48.850;8.924;2023-09-12T04:17:10;96777.53;;;25.31;52.12
20079;BME280;10199;48.850;8.924;2023-09-12T04:19:40;96778.53;;;25.35;51.93
20079;BME280;10199;48.850;8.924;2023-09-12T04:22:08;96776.94;;;25.34;52.10
20079;BME280;10199;48.850;8.924;2023-09-12T04:24:36;96776.44;;;25.32;52.07
20079;BME280;10199;48.850;8.924;2023-09-12T04:27:05;96783.16;;;25.35;52.35
20079;BME280;10199;48.850;8.924;2023-09-12T04:29:33;96781.25;;;25.35;52.26
20079;BME280;10199;48.850;8.924;2023-09-12T04:32:03;96778.63;;;25.30;52.10
20079;BME280;10199;48.850;8.924;2023-09-12T04:34:31;96781.25;;;25.35;52.44
20079;BME280;10199;48.850;8.924;2023-09-12T04:37:01;96774.72;;;25.36;52.18
20079;BME280;10199;48.850;8.924;2023-09-12T04:39:30;96772.03;;;25.36;52.02
20079;BME280;10199;48.850;8.924;2023-09-12T04:41:58;96772.31;;;25.35;52.21
20079;BME280;10199;48.850;8.924;2023-09-12T04:44:26;96776.63;;;25.36;51.96
20079;BME280;10199;48.850;8.924;2023-09-12T04:46:54;96777.34;;;25.42;51.91
20079;BME280;10199;48.850;8.924;2023-09-12T04:49:23;96774.03;;;25.45;51.74
20079;BME280;10199;48.850;8.924;2023-09-12T04:51:51;96773.63;;;25.37;51.78
20079;BME280;10199;48.850;8.924;2023-09-12T04:54:20;96776.44;;;25.32;51.82
20079;BME280;10199;48.850;8.924;2023-09-12T04:56:49;96779.22;;;25.27;52.03
20079;BME280;10199;48.850;8.924;2023-09-12T04:59:17;96777.03;;;25.29;51.66
20079;BME280;10199;48.850;8.924;2023-09-12T05:01:45;96787.44;;;25.22;52.03
20079;BME280;10199;48.850;8.924;2023-09-12T05:04:14;96797.31;;;25.13;51.90
20079;BME280;10199;48.850;8.924;2023-09-12T05:06:43;96783.44;;;25.01;51.96
20079;BME280;10199;48.850;8.924;2023-09-12T05:09:11;96792.06;;;25.03;52.34
20079;BME280;10199;48.850;8.924;2023-09-12T05:11:40;96781.75;;;25.05;52.32
20079;BME280;10199;48.850;8.924;2023-09-12T05:14:09;96785.84;;;25.02;51.68
20079;BME280;10199;48.850;8.924;2023-09-12T05:16:37;96783.84;;;25.08;52.21
20079;BME280;10199;48.850;8.924;2023-09-12T05:19:05;96784.88;;;25.12;52.02
20079;BME280;10199;48.850;8.924;2023-09-12T05:21:34;96777.94;;;25.06;52.01
20079;BME280;10199;48.850;8.924;2023-09-12T05:24:02;96786.56;;;25.08;52.05
20079;BME280;10199;48.850;8.924;2023-09-12T05:26:30;96788.09;;;24.95;51.98
20079;BME280;10199;48.850;8.924;2023-09-12T05:29:00;96792.94;;;24.80;52.46
20079;BME280;10199;48.850;8.924;2023-09-12T05:31:28;96787.09;;;24.72;52.34
20079;BME280;10199;48.850;8.924;2023-09-12T05:33:59;96775.84;;;24.65;52.38
20079;BME280;10199;48.850;8.924;2023-09-12T05:36:27;96798.06;;;25.00;51.73
20079;BME280;10199;48.850;8.924;2023-09-12T05:38:55;96800.09;;;25.08;52.33
20079;BME280;10199;48.850;8.924;2023-09-12T05:41:24;96769.38;;;24.80;52.38
20079;BME280;10199;48.850;8.924;2023-09-12T05:43:52;96809.91;;;25.04;52.23
20079;BME280;10199;48.850;8.924;2023-09-12T05:46:21;96804.63;;;24.94;52.59
20079;BME280;10199;48.850;8.924;2023-09-12T05:48:49;96809.97;;;24.99;52.31
20079;BME280;10199;48.850;8.924;2023-09-12T05:51:18;96795.63;;;24.80;52.28
20079;BME280;10199;48.850;8.924;2023-09-12T05:53:46;96817.28;;;24.80;52.71
20079;BME280;10199;48.850;8.924;2023-09-12T05:56:14;96831.63;;;24.80;52.55
20079;BME280;10199;48.850;8.924;2023-09-12T05:58:42;96830.44;;;24.86;52.04
20079;BME280;10199;48.850;8.924;2023-09-12T06:01:11;96835.69;;;24.96;52.52
20079;BME280;10199;48.850;8.924;2023-09-12T06:03:40;96832.16;;;25.01;52.46
20079;BME280;10199;48.850;8.924;2023-09-12T06:06:08;96826.56;;;25.11;52.22
20079;BME280;10199;48.850;8.924;2023-09-12T06:08:37;96830.03;;;25.17;52.17
20079;BME280;10199;48.850;8.924;2023-09-12T06:11:05;96826.16;;;25.23;52.11
20079;BME280;10199;48.850;8.924;2023-09-12T06:13:33;96819.22;;;25.17;52.44
20079;BME280;10199;48.850;8.924;2023-09-12T06:16:04;96831.41;;;25.14;52.46
20079;BME280;10199;48.850;8.924;2023-09-12T06:18:33;96834.56;;;25.21;52.39
20079;BME280;10199;48.850;8.924;2023-09-12T06:21:02;96837.78;;;25.23;52.42
20079;BME280;10199;48.850;8.924;2023-09-12T06:23:33;96838.06;;;25.22;52.85
20079;BME280;10199;48.850;8.924;2023-09-12T06:26:01;96839.97;;;25.21;52.94
20079;BME280;10199;48.850;8.924;2023-09-12T06:28:30;96841.28;;;25.24;52.76
20079;BME280;10199;48.850;8.924;2023-09-12T06:30:59;96841.59;;;25.22;53.02
20079;BME280;10199;48.850;8.924;2023-09-12T06:33:27;96829.56;;;25.09;53.04
20079;BME280;10199;48.850;8.924;2023-09-12T06:35:55;96845.31;;;25.26;53.03
20079;BME280;10199;48.850;8.924;2023-09-12T06:38:24;96847.50;;;25.24;52.66
20079;BME280;10199;48.850;8.924;2023-09-12T06:40:52;96847.50;;;25.24;52.79
20079;BME280;10199;48.850;8.924;2023-09-12T06:43:20;96842.09;;;25.24;52.91
20079;BME280;10199;48.850;8.924;2023-09-12T06:45:48;96835.16;;;25.18;52.95
20079;BME280;10199;48.850;8.924;2023-09-12T06:48:17;96839.47;;;25.19;52.82
20079;BME280;10199;48.850;8.924;2023-09-12T06:50:45;96839.19;;;25.21;52.82
20079;BME280;10199;48.850;8.924;2023-09-12T06:53:15;96857.66;;;25.32;53.00
20079;BME280;10199;48.850;8.924;2023-09-12T06:55:45;96838.28;;;25.25;53.00
20079;BME280;10199;48.850;8.924;2023-09-12T06:58:13;96850.94;;;25.30;52.92
20079;BME280;10199;48.850;8.924;2023-09-12T07:00:41;96851.75;;;25.30;53.19
20079;BME280;10199;48.850;8.924;2023-09-12T07:03:09;96856.06;;;25.31;53.17
20079;BME280;10199;48.850;8.924;2023-09-12T07:05:38;96859.34;;;25.28;53.08
20079;BME280;10199;48.850;8.924;2023-09-12T07:08:07;96865.78;;;25.32;52.78
20079;BME280;10199;48.850;8.924;2023-09-12T07:10:35;96864.19;;;25.31;53.00
20079;BME280;10199;48.850;8.924;2023-09-12T07:13:06;96861.97;;;25.33;52.96
20079;BME280;10199;48.850;8.924;2023-09-12T07:15:35;96862.91;;;25.43;53.09
20079;BME280;10199;48.850;8.924;2023-09-12T07:18:04;96857.59;;;25.37;52.58
20079;BME280;10199;48.850;8.924;2023-09-12T07:20:34;96852.25;;;25.32;52.60
20079;BME280;10199;48.850;8.924;2023-09-12T07:23:02;96824.03;;;25.20;52.91
20079;BME280;10199;48.850;8.924;2023-09-12T07:25:30;96863.84;;;25.52;52.45
20079;BME280;10199;48.850;8.924;2023-09-12T07:27:58;96864.81;;;25.42;52.62
20079;BME280;10199;48.850;8.924;2023-09-12T07:30:28;96844.72;;;25.29;52.88
20079;BME280;10199;48.850;8.924;2023-09-12T07:32:57;96867.22;;;25.44;52.62
20079;BME280;10199;48.850;8.924;2023-09-12T07:35:25;96863.50;;;25.39;52.78
20079;BME280;10199;48.850;8.924;2023-09-12T07:37:52;96867.75;;;25.46;52.43
20079;BME280;10199;48.850;8.924;2023-09-12T07:40:21;96870.25;;;25.42;52.60
20079;BME280;10199;48.850;8.924;2023-09-12T07:42:48;96876.06;;;25.49;52.41
20079;BME280;10199;48.850;8.924;2023-09-12T07:45:17;96874.69;;;25.52;52.67
20079;BME280;10199;48.850;8.924;2023-09-12T07:47:46;96861.44;;;25.50;52.64
20079;BME280;10199;48.850;8.924;2023-09-12T07:50:15;96880.31;;;25.55;52.75
20079;BME280;10199;48.850;8.924;2023-09-12T07:52:44;96881.09;;;25.56;52.94
20079;BME280;10199;48.850;8.924;2023-09-12T07:55:12;96884.91;;;25.55;52.60
20079;BME280;10199;48.850;8.924;2023-09-12T07:57:41;96886.81;;;25.54;52.88
20079;BME280;10199;48.850;8.924;2023-09-12T08:00:10;96884.13;;;25.54;52.98
20079;BME280;10199;48.850;8.924;2023-09-12T08:02:39;96881.09;;;25.56;52.73
20079;BME280;10199;48.850;8.924;2023-09-12T08:05:08;96874.16;;;25.50;52.61
20079;BME280;10199;48.850;8.924;2023-09-12T08:07:37;96893.34;;;25.53;53.11
20079;BME280;10199;48.850;8.924;2023-09-12T08:10:08;96881.63;;;25.58;52.93
20079;BME280;10199;48.850;8.924;2023-09-12T08:12:36;96875.41;;;25.57;53.12
20079;BME280;10199;48.850;8.924;2023-09-12T08:15:06;96885.28;;;25.67;53.16
20079;BME280;10199;48.850;8.924;2023-09-12T08:17:34;96888.50;;;25.69;52.78
20079;BME280;10199;48.850;8.924;2023-09-12T08:20:03;96886.09;;;25.67;52.75
20079;BME280;10199;48.850;8.924;2023-09-12T08:22:33;96882.28;;;25.68;53.05
20079;BME280;10199;48.850;8.924;2023-09-12T08:25:01;96885.00;;;25.68;53.21
20079;BME280;10199;48.850;8.924;2023-09-12T08:27:29;96873.84;;;25.70;53.17
20079;BME280;10199;48.850;8.924;2023-09-12T08:29:57;96846.19;;;25.54;52.92
20079;BME280;10199;48.850;8.924;2023-09-12T08:32:25;96878.78;;;25.68;53.28
20079;BME280;10199;48.850;8.924;2023-09-12T08:34:54;96879.78;;;25.72;53.09
20079;BME280;10199;48.850;8.924;2023-09-12T08:37:25;96875.47;;;25.71;53.06
20079;BME280;10199;48.850;8.924;2023-09-12T08:39:55;96880.78;;;25.76;53.09
20079;BME280;10199;48.850;8.924;2023-09-12T08:42:26;96881.81;;;25.80;53.11
20079;BME280;10199;48.850;8.924;2023-09-12T08:44:55;96877.19;;;25.81;53.14
20079;BME280;10199;48.850;8.924;2023-09-12T08:47:24;96888.22;;;25.84;53.07
20079;BME280;10199;48.850;8.924;2023-09-12T08:49:52;96883.19;;;25.78;53.31
20079;BME280;10199;48.850;8.924;2023-09-12T08:52:22;96884.00;;;25.78;53.38
20079;BME280;10199;48.850;8.924;2023-09-12T08:54:50;96880.19;;;25.79;53.19
20079;BME280;10199;48.850;8.924;2023-09-12T08:57:20;96877.50;;;25.79;53.39
20079;BME280;10199;48.850;8.924;2023-09-12T08:59:49;96880.31;;;25.88;53.05
20079;BME280;10199;48.850;8.924;2023-09-12T09:02:18;96887.63;;;25.87;52.99
20079;BME280;10199;48.850;8.924;2023-09-12T09:04:47;96889.25;;;25.88;53.08
20079;BME280;10199;48.850;8.924;2023-09-12T09:07:18;96885.44;;;25.89;53.28
20079;BME280;10199;48.850;8.924;2023-09-12T09:09:47;96878.53;;;25.97;52.99
20079;BME280;10199;48.850;8.924;2023-09-12T09:12:19;96882.28;;;26.01;53.00
20079;BME280;10199;48.850;8.924;2023-09-12T09:14:47;96883.44;;;25.95;53.17
20079;BME280;10199;48.850;8.924;2023-09-12T09:17:15;96877.13;;;25.99;53.25
20079;BME280;10199;48.850;8.924;2023-09-12T09:19:47;96875.00;;;25.96;53.20
20079;BME280;10199;48.850;8.924;2023-09-12T09:22:15;96863.66;;;25.94;53.17
20079;BME280;10199;48.850;8.924;2023-09-12T09:24:43;96871.69;;;25.99;53.15
20079;BME280;10199;48.850;8.924;2023-09-12T09:27:11;96865.69;;;26.02;52.85
20079;BME280;10199;48.850;8.924;2023-09-12T09:29:47;96861.16;;;25.98;52.97
20079;BME280;10199;48.850;8.924;2023-09-12T09:32:19;96862.69;;;26.04;52.83
20079;BME280;10199;48.850;8.924;2023-09-12T09:34:48;96858.13;;;25.99;52.32
20079;BME280;10199;48.850;8.924;2023-09-12T09:37:16;96859.97;;;26.04;52.69
20079;BME280;10199;48.850;8.924;2023-09-12T09:39:47;96860.59;;;26.01;53.03
20079;BME280;10199;48.850;8.924;2023-09-12T09:42:18;96862.38;;;26.06;52.72
20079;BME280;10199;48.850;8.924;2023-09-12T09:44:49;96861.59;;;26.05;52.65
20079;BME280;10199;48.850;8.924;2023-09-12T09:47:17;96868.31;;;26.08;52.40
20079;BME280;10199;48.850;8.924;2023-09-12T09:49:46;96857.38;;;26.13;52.24
20079;BME280;10199;48.850;8.924;2023-09-12T09:52:14;96832.38;;;26.02;51.87
20079;BME280;10199;48.850;8.924;2023-09-12T09:54:43;96853.34;;;26.10;52.06
20079;BME280;10199;48.850;8.924;2023-09-12T09:57:12;96844.91;;;26.12;51.93
20079;BME280;10199;48.850;8.924;2023-09-12T09:59:40;96849.13;;;26.18;51.91
20079;BME280;10199;48.850;8.924;2023-09-12T10:02:16;96848.44;;;26.12;52.08
20079;BME280;10199;48.850;8.924;2023-09-12T10:04:49;96841.91;;;26.13;52.17
20079;BME280;10199;48.850;8.924;2023-09-12T10:07:26;96843.81;;;26.13;52.27
20079;BME280;10199;48.850;8.924;2023-09-12T10:09:56;96837.28;;;26.14;52.25
20079;BME280;10199;48.850;8.924;2023-09-12T10:12:26;96836.38;;;26.18;52.22
20079;BME280;10199;48.850;8.924;2023-09-12T10:14:58;96814.69;;;26.05;52.16
20079;BME280;10199;48.850;8.924;2023-09-12T10:17:31;96841.72;;;26.23;52.33
20079;BME280;10199;48.850;8.924;2023-09-12T10:20:03;96816.41;;;26.14;52.13
20079;BME280;10199;48.850;8.924;2023-09-12T10:22:39;96839.19;;;26.27;52.20
20079;BME280;10199;48.850;8.924;2023-09-12T10:25:11;96835.38;;;26.28;52.14
20079;BME280;10199;48.850;8.924;2023-09-12T10:27:40;96845.13;;;26.29;51.97
20079;BME280;10199;48.850;8.924;2023-09-12T10:30:09;96839.69;;;26.29;51.90
20079;BME280;10199;48.850;8.924;2023-09-12T10:32:39;96843.94;;;26.35;51.59
20079;BME280;10199;48.850;8.924;2023-09-12T10:35:09;96848.31;;;26.31;51.96
20079;BME280;10199;48.850;8.924;2023-09-12T10:37:41;96843.63;;;26.37;51.63
20079;BME280;10199;48.850;8.924;2023-09-12T10:40:11;96837.41;;;26.36;51.66
20079;BME280;10199;48.850;8.924;2023-09-12T10:42:40;96820.22;;;26.27;51.64
20079;BME280;10199;48.850;8.924;2023-09-12T10:45:10;96840.91;;;26.37;51.54
20079;BME280;10199;48.850;8.924;2023-09-12T10:47:39;96833.59;;;26.37;51.75
20079;BME280;10199;48.850;8.924;2023-09-12T10:50:08;96837.19;;;26.46;51.54
20079;BME280;10199;48.850;8.924;2023-09-12T10:52:38;96828.66;;;26.39;51.49
20079;BME280;10199;48.850;8.924;2023-09-12T10:55:08;96819.84;;;26.33;51.53
20079;BME280;10199;48.850;8.924;2023-09-12T10:57:59;96834.59;;;26.41;51.59
20079;BME280;10199;48.850;8.924;2023-09-12T11:00:28;96830.66;;;26.47;51.33
20079;BME280;10199;48.850;8.924;2023-09-12T11:03:35;96817.22;;;26.42;51.51
20079;BME280;10199;48.850;8.924;2023-09-12T11:06:04;96828.25;;;26.46;51.41
20079;BME280;10199;48.850;8.924;2023-09-12T11:08:35;96817.22;;;26.42;51.19
20079;BME280;10199;48.850;8.924;2023-09-12T11:11:20;96827.44;;;26.45;51.43
20079;BME280;10199;48.850;8.924;2023-09-12T11:14:02;96821.41;;;26.48;51.42
20079;BME280;10199;48.850;8.924;2023-09-12T11:16:30;96824.63;;;26.50;51.70
20079;BME280;10199;48.850;8.924;2023-09-12T11:19:19;96819.19;;;26.50;51.44
20079;BME280;10199;48.850;8.924;2023-09-12T11:21:51;96805.63;;;26.50;51.66
20079;BME280;10199;48.850;8.924;2023-09-12T11:24:20;96817.97;;;26.56;51.73
20079;BME280;10199;48.850;8.924;2023-09-12T11:26:56;96815.88;;;26.53;51.76
20079;BME280;10199;48.850;8.924;2023-09-12T11:29:29;96809.97;;;26.51;51.67
20079;BME280;10199;48.850;8.924;2023-09-12T11:31:59;96810.34;;;26.58;51.82
20079;BME280;10199;48.850;8.924;2023-09-12T11:34:36;96814.34;;;26.61;51.71
20079;BME280;10199;48.850;8.924;2023-09-12T11:37:05;96808.13;;;26.60;51.94
20079;BME280;10199;48.850;8.924;2023-09-12T11:39:34;96802.88;;;26.64;51.90
20079;BME280;10199;48.850;8.924;2023-09-12T11:42:04;96801.41;;;26.58;52.05
20079;BME280;10199;48.850;8.924;2023-09-12T11:44:35;96815.47;;;26.60;51.79
20079;BME280;10199;48.850;8.924;2023-09-12T11:47:04;96807.63;;;26.58;51.86
20079;BME280;10199;48.850;8.924;2023-09-12T11:49:37;96810.34;;;26.58;52.11
20079;BME280;10199;48.850;8.924;2023-09-12T11:52:08;96813.06;;;26.58;52.18
20079;BME280;10199;48.850;8.924;2023-09-12T11:54:37;96822.69;;;26.64;52.13
20079;BME280;10199;48.850;8.924;2023-09-12T11:57:07;96825.00;;;26.57;52.21
20079;BME280;10199;48.850;8.924;2023-09-12T11:59:39;96826.13;;;26.56;52.33
20079;BME280;10199;48.850;8.924;2023-09-12T12:02:11;96821.81;;;26.55;52.18
20079;BME280;10199;48.850;8.924;2023-09-12T12:04:40;96823.50;;;26.65;52.14
20079;BME280;10199;48.850;8.924;2023-09-12T12:07:09;96823.53;;;26.51;52.43
20079;BME280;10199;48.850;8.924;2023-09-12T12:09:38;96819.59;;;26.57;52.36
20079;BME280;10199;48.850;8.924;2023-09-12T12:12:10;96808.72;;;26.57;52.45
20079;BME280;10199;48.850;8.924;2023-09-12T12:14:40;96811.94;;;26.59;52.39
20079;BME280;10199;48.850;8.924;2023-09-12T12:17:08;96788.66;;;26.45;52.93
20079;BME280;10199;48.850;8.924;2023-09-12T12:19:37;96806.31;;;26.56;52.41
20079;BME280;10199;48.850;8.924;2023-09-12T12:22:07;96803.13;;;26.54;52.71
20079;BME280;10199;48.850;8.924;2023-09-12T12:24:37;96803.13;;;26.54;52.88
20079;BME280;10199;48.850;8.924;2023-09-12T12:27:06;96763.44;;;26.30;52.88
20079;BME280;10199;48.850;8.924;2023-09-12T12:29:34;96807.13;;;26.56;52.90
20079;BME280;10199;48.850;8.924;2023-09-12T12:32:03;96811.44;;;26.57;53.33
20079;BME280;10199;48.850;8.924;2023-09-12T12:34:32;96813.56;;;26.60;53.26
20079;BME280;10199;48.850;8.924;2023-09-12T12:37:00;96816.25;;;26.60;53.36
20079;BME280;10199;48.850;8.924;2023-09-12T12:39:31;96807.75;;;26.53;53.52
20079;BME280;10199;48.850;8.924;2023-09-12T12:41:59;96816.38;;;26.55;53.61
20079;BME280;10199;48.850;8.924;2023-09-12T12:44:33;96812.44;;;26.61;53.72
20079;BME280;10199;48.850;8.924;2023-09-12T12:47:03;96816.56;;;26.59;54.02
20079;BME280;10199;48.850;8.924;2023-09-12T12:49:35;96802.31;;;26.53;53.82
20079;BME280;10199;48.850;8.924;2023-09-12T12:52:04;96800.09;;;26.55;53.97
20079;BME280;10199;48.850;8.924;2023-09-12T12:54:34;96802.69;;;26.60;54.02
20079;BME280;10199;48.850;8.924;2023-09-12T12:57:02;96786.53;;;26.55;54.21
20079;BME280;10199;48.850;8.924;2023-09-12T12:59:30;96798.25;;;26.64;54.41
20079;BME280;10199;48.850;8.924;2023-09-12T13:02:03;96803.50;;;26.61;54.18
20079;BME280;10199;48.850;8.924;2023-09-12T13:04:36;96798.06;;;26.61;54.37
20079;BME280;10199;48.850;8.924;2023-09-12T13:07:04;96789.13;;;26.60;54.31
20079;BME280;10199;48.850;8.924;2023-09-12T13:09:34;96785.69;;;26.69;54.43
20079;BME280;10199;48.850;8.924;2023-09-12T13:12:02;96778.66;;;26.67;54.57